sensor_id;sensor_type;location;lat;lon;timestamp;P1;durP1;ratioP1;P2;durP2;ratioP2
77466;SDS011;66564;42.482;25.548;2023-06-14T00:01:17;10.85;;;5.78;;
77466;SDS011;66564;42.482;25.548;2023-06-14T00:03:45;8.00;;;6.70;;
77466;SDS011;66564;42.482;25.548;2023-06-14T00:06:12;8.93;;;6.38;;
77466;SDS011;66564;42.482;25.548;2023-06-14T00:08:38;6.78;;;5.63;;
77466;SDS011;66564;42.482;25.548;2023-06-14T00:11:04;5.93;;;4.95;;
77466;SDS011;66564;42.482;25.548;2023-06-14T00:13:30;8.73;;;5.65;;
77466;SDS011;66564;42.482;25.548;2023-06-14T00:15:56;8.77;;;6.00;;
77466;SDS011;66564;42.482;25.548;2023-06-14T00:18:22;12.93;;;6.40;;
77466;SDS011;66564;42.482;25.548;2023-06-14T00:20:49;10.45;;;5.53;;
77466;SDS011;66564;42.482;25.548;2023-06-14T00:23:15;8.45;;;5.72;;
77466;SDS011;66564;42.482;25.548;2023-06-14T00:25:40;6.35;;;5.65;;
77466;SDS011;66564;42.482;25.548;2023-06-14T00:28:06;11.13;;;6.43;;
77466;SDS011;66564;42.482;25.548;2023-06-14T00:30:31;8.10;;;5.28;;
77466;SDS011;66564;42.482;25.548;2023-06-14T00:32:57;7.00;;;5.75;;
77466;SDS011;66564;42.482;25.548;2023-06-14T00:35:23;8.70;;;5.72;;
77466;SDS011;66564;42.482;25.548;2023-06-14T00:37:48;10.13;;;5.78;;
77466;SDS011;66564;42.482;25.548;2023-06-14T00:40:14;9.75;;;5.85;;
77466;SDS011;66564;42.482;25.548;2023-06-14T00:42:39;11.38;;;5.82;;
77466;SDS011;66564;42.482;25.548;2023-06-14T00:45:05;11.35;;;5.72;;
77466;SDS011;66564;42.482;25.548;2023-06-14T00:47:31;11.52;;;5.75;;
77466;SDS011;66564;42.482;25.548;2023-06-14T00:49:56;7.70;;;5.72;;
77466;SDS011;66564;42.482;25.548;2023-06-14T00:52:23;9.65;;;5.50;;
77466;SDS011;66564;42.482;25.548;2023-06-14T00:54:51;6.80;;;5.40;;
77466;SDS011;66564;42.482;25.548;2023-06-14T00:57:17;9.73;;;5.72;;
77466;SDS011;66564;42.482;25.548;2023-06-14T00:59:45;7.57;;;5.40;;
77466;SDS011;66564;42.482;25.548;2023-06-14T01:02:12;9.70;;;5.25;;
77466;SDS011;66564;42.482;25.548;2023-06-14T01:04:40;8.82;;;5.53;;
77466;SDS011;66564;42.482;25.548;2023-06-14T01:10:51;6.93;;;4.90;;
77466;SDS011;66564;42.482;25.548;2023-06-14T01:13:23;6.53;;;4.72;;
77466;SDS011;66564;42.482;25.548;2023-06-14T01:15:57;10.07;;;4.82;;
77466;SDS011;66564;42.482;25.548;2023-06-14T01:18:23;8.07;;;4.95;;
77466;SDS011;66564;42.482;25.548;2023-06-14T01:20:51;13.75;;;5.45;;
77466;SDS011;66564;42.482;25.548;2023-06-14T01:23:18;7.00;;;5.18;;
77466;SDS011;66564;42.482;25.548;2023-06-14T01:25:45;7.85;;;4.88;;
77466;SDS011;66564;42.482;25.548;2023-06-14T01:28:11;6.22;;;4.10;;
77466;SDS011;66564;42.482;25.548;2023-06-14T01:30:40;12.18;;;5.38;;
77466;SDS011;66564;42.482;25.548;2023-06-14T01:33:19;9.45;;;5.40;;
77466;SDS011;66564;42.482;25.548;2023-06-14T01:35:47;7.85;;;5.00;;
77466;SDS011;66564;42.482;25.548;2023-06-14T01:38:16;6.60;;;4.75;;
77466;SDS011;66564;42.482;25.548;2023-06-14T01:40:47;11.13;;;4.72;;
77466;SDS011;66564;42.482;25.548;2023-06-14T01:43:13;9.15;;;5.22;;
77466;SDS011;66564;42.482;25.548;2023-06-14T01:45:40;6.75;;;4.93;;
77466;SDS011;66564;42.482;25.548;2023-06-14T01:48:07;6.45;;;4.80;;
77466;SDS011;66564;42.482;25.548;2023-06-14T01:50:33;5.90;;;4.38;;
77466;SDS011;66564;42.482;25.548;2023-06-14T01:52:59;8.73;;;4.60;;
77466;SDS011;66564;42.482;25.548;2023-06-14T01:55:25;7.40;;;4.82;;
77466;SDS011;66564;42.482;25.548;2023-06-14T01:57:51;6.00;;;4.40;;
77466;SDS011;66564;42.482;25.548;2023-06-14T02:00:17;6.03;;;4.88;;
77466;SDS011;66564;42.482;25.548;2023-06-14T02:02:44;9.77;;;4.57;;
77466;SDS011;66564;42.482;25.548;2023-06-14T02:05:10;7.25;;;3.85;;
77466;SDS011;66564;42.482;25.548;2023-06-14T02:07:36;5.25;;;4.47;;
77466;SDS011;66564;42.482;25.548;2023-06-14T02:10:03;11.30;;;4.45;;
77466;SDS011;66564;42.482;25.548;2023-06-14T02:12:29;7.22;;;4.72;;
77466;SDS011;66564;42.482;25.548;2023-06-14T02:14:55;6.95;;;4.18;;
77466;SDS011;66564;42.482;25.548;2023-06-14T02:17:21;9.15;;;4.40;;
77466;SDS011;66564;42.482;25.548;2023-06-14T02:19:47;7.20;;;4.07;;
77466;SDS011;66564;42.482;25.548;2023-06-14T02:22:13;6.85;;;4.63;;
77466;SDS011;66564;42.482;25.548;2023-06-14T02:24:40;6.43;;;4.63;;
77466;SDS011;66564;42.482;25.548;2023-06-14T02:27:06;6.68;;;5.00;;
77466;SDS011;66564;42.482;25.548;2023-06-14T02:29:32;6.75;;;5.25;;
77466;SDS011;66564;42.482;25.548;2023-06-14T02:31:57;7.55;;;5.13;;
77466;SDS011;66564;42.482;25.548;2023-06-14T02:34:23;8.68;;;4.80;;
77466;SDS011;66564;42.482;25.548;2023-06-14T02:36:48;7.30;;;5.05;;
77466;SDS011;66564;42.482;25.548;2023-06-14T02:39:14;7.03;;;5.35;;
77466;SDS011;66564;42.482;25.548;2023-06-14T02:41:40;6.90;;;4.72;;
77466;SDS011;66564;42.482;25.548;2023-06-14T02:44:06;5.88;;;4.70;;
77466;SDS011;66564;42.482;25.548;2023-06-14T02:46:31;9.77;;;5.30;;
77466;SDS011;66564;42.482;25.548;2023-06-14T02:48:57;8.35;;;4.70;;
77466;SDS011;66564;42.482;25.548;2023-06-14T02:51:23;6.47;;;5.00;;
77466;SDS011;66564;42.482;25.548;2023-06-14T02:53:48;7.65;;;5.03;;
77466;SDS011;66564;42.482;25.548;2023-06-14T02:56:14;7.35;;;5.57;;
77466;SDS011;66564;42.482;25.548;2023-06-14T02:58:42;6.93;;;5.60;;
77466;SDS011;66564;42.482;25.548;2023-06-14T03:01:08;7.07;;;5.93;;
77466;SDS011;66564;42.482;25.548;2023-06-14T03:03:37;7.72;;;5.85;;
77466;SDS011;66564;42.482;25.548;2023-06-14T03:06:03;9.27;;;6.32;;
77466;SDS011;66564;42.482;25.548;2023-06-14T03:08:32;9.05;;;6.05;;
77466;SDS011;66564;42.482;25.548;2023-06-14T03:11:03;12.55;;;6.05;;
77466;SDS011;66564;42.482;25.548;2023-06-14T03:13:30;8.95;;;6.07;;
77466;SDS011;66564;42.482;25.548;2023-06-14T03:15:57;11.00;;;5.90;;
77466;SDS011;66564;42.482;25.548;2023-06-14T03:18:23;8.15;;;6.13;;
77466;SDS011;66564;42.482;25.548;2023-06-14T03:20:48;10.07;;;6.00;;
77466;SDS011;66564;42.482;25.548;2023-06-14T03:23:16;9.82;;;5.57;;
77466;SDS011;66564;42.482;25.548;2023-06-14T03:25:42;10.18;;;5.63;;
77466;SDS011;66564;42.482;25.548;2023-06-14T03:28:08;8.65;;;6.80;;
77466;SDS011;66564;42.482;25.548;2023-06-14T03:30:35;10.23;;;6.85;;
77466;SDS011;66564;42.482;25.548;2023-06-14T03:33:00;8.45;;;6.15;;
77466;SDS011;66564;42.482;25.548;2023-06-14T03:35:26;10.35;;;6.95;;
77466;SDS011;66564;42.482;25.548;2023-06-14T03:37:53;9.38;;;6.82;;
77466;SDS011;66564;42.482;25.548;2023-06-14T03:40:19;9.95;;;7.20;;
77466;SDS011;66564;42.482;25.548;2023-06-14T03:42:46;10.40;;;6.85;;
77466;SDS011;66564;42.482;25.548;2023-06-14T03:45:12;8.43;;;6.15;;
77466;SDS011;66564;42.482;25.548;2023-06-14T03:47:37;9.63;;;6.63;;
77466;SDS011;66564;42.482;25.548;2023-06-14T03:50:03;9.75;;;6.28;;
77466;SDS011;66564;42.482;25.548;2023-06-14T03:52:30;9.88;;;6.53;;
77466;SDS011;66564;42.482;25.548;2023-06-14T03:54:56;9.60;;;6.03;;
77466;SDS011;66564;42.482;25.548;2023-06-14T03:57:22;8.18;;;7.03;;
77466;SDS011;66564;42.482;25.548;2023-06-14T03:59:48;8.93;;;6.43;;
77466;SDS011;66564;42.482;25.548;2023-06-14T04:02:15;8.60;;;6.90;;
77466;SDS011;66564;42.482;25.548;2023-06-14T04:04:44;9.77;;;6.90;;
77466;SDS011;66564;42.482;25.548;2023-06-14T04:07:13;8.93;;;6.93;;
77466;SDS011;66564;42.482;25.548;2023-06-14T04:09:39;10.57;;;6.72;;
77466;SDS011;66564;42.482;25.548;2023-06-14T04:12:05;7.88;;;6.88;;
77466;SDS011;66564;42.482;25.548;2023-06-14T04:14:32;8.90;;;6.25;;
77466;SDS011;66564;42.482;25.548;2023-06-14T04:16:58;8.32;;;6.80;;
77466;SDS011;66564;42.482;25.548;2023-06-14T04:19:23;9.73;;;6.53;;
77466;SDS011;66564;42.482;25.548;2023-06-14T04:21:49;9.80;;;6.20;;
77466;SDS011;66564;42.482;25.548;2023-06-14T04:24:15;9.20;;;6.38;;
77466;SDS011;66564;42.482;25.548;2023-06-14T04:26:41;9.70;;;6.70;;
77466;SDS011;66564;42.482;25.548;2023-06-14T04:29:10;8.43;;;6.00;;
77466;SDS011;66564;42.482;25.548;2023-06-14T04:31:42;7.97;;;6.43;;
77466;SDS011;66564;42.482;25.548;2023-06-14T04:34:09;9.05;;;5.15;;
77466;SDS011;66564;42.482;25.548;2023-06-14T04:36:41;5.63;;;4.60;;
77466;SDS011;66564;42.482;25.548;2023-06-14T04:39:17;6.03;;;4.50;;
77466;SDS011;66564;42.482;25.548;2023-06-14T04:41:43;6.00;;;4.30;;
77466;SDS011;66564;42.482;25.548;2023-06-14T04:44:09;6.00;;;4.70;;
77466;SDS011;66564;42.482;25.548;2023-06-14T04:46:35;9.98;;;5.88;;
77466;SDS011;66564;42.482;25.548;2023-06-14T04:49:09;7.78;;;5.47;;
77466;SDS011;66564;42.482;25.548;2023-06-14T04:51:35;14.88;;;7.38;;
77466;SDS011;66564;42.482;25.548;2023-06-14T04:54:02;8.02;;;5.43;;
77466;SDS011;66564;42.482;25.548;2023-06-14T04:56:28;8.52;;;5.82;;
77466;SDS011;66564;42.482;25.548;2023-06-14T04:58:54;7.95;;;5.38;;
77466;SDS011;66564;42.482;25.548;2023-06-14T05:01:21;9.48;;;5.50;;
77466;SDS011;66564;42.482;25.548;2023-06-14T05:03:48;8.35;;;5.85;;
77466;SDS011;66564;42.482;25.548;2023-06-14T05:06:14;9.77;;;5.40;;
77466;SDS011;66564;42.482;25.548;2023-06-14T05:08:41;8.45;;;4.82;;
77466;SDS011;66564;42.482;25.548;2023-06-14T05:11:06;9.55;;;5.57;;
77466;SDS011;66564;42.482;25.548;2023-06-14T05:13:32;14.10;;;5.35;;
77466;SDS011;66564;42.482;25.548;2023-06-14T05:15:58;12.75;;;5.80;;
77466;SDS011;66564;42.482;25.548;2023-06-14T05:18:24;12.80;;;5.47;;
77466;SDS011;66564;42.482;25.548;2023-06-14T05:20:50;9.82;;;5.70;;
77466;SDS011;66564;42.482;25.548;2023-06-14T05:23:16;7.18;;;5.03;;
77466;SDS011;66564;42.482;25.548;2023-06-14T05:25:45;6.05;;;4.63;;
77466;SDS011;66564;42.482;25.548;2023-06-14T05:28:11;8.70;;;4.97;;
77466;SDS011;66564;42.482;25.548;2023-06-14T05:30:40;6.80;;;5.20;;
77466;SDS011;66564;42.482;25.548;2023-06-14T05:33:05;7.47;;;4.93;;
77466;SDS011;66564;42.482;25.548;2023-06-14T05:35:31;7.47;;;4.00;;
77466;SDS011;66564;42.482;25.548;2023-06-14T05:37:56;7.13;;;4.60;;
77466;SDS011;66564;42.482;25.548;2023-06-14T05:40:26;10.40;;;4.10;;
77466;SDS011;66564;42.482;25.548;2023-06-14T05:42:52;5.38;;;4.30;;
77466;SDS011;66564;42.482;25.548;2023-06-14T05:45:17;21.42;;;5.13;;
77466;SDS011;66564;42.482;25.548;2023-06-14T05:47:43;8.15;;;4.28;;
77466;SDS011;66564;42.482;25.548;2023-06-14T05:50:08;7.28;;;4.50;;
77466;SDS011;66564;42.482;25.548;2023-06-14T05:52:34;7.85;;;4.88;;
77466;SDS011;66564;42.482;25.548;2023-06-14T05:55:01;6.07;;;4.25;;
77466;SDS011;66564;42.482;25.548;2023-06-14T05:57:31;44.08;;;6.40;;
77466;SDS011;66564;42.482;25.548;2023-06-14T05:59:56;13.00;;;4.22;;
77466;SDS011;66564;42.482;25.548;2023-06-14T06:02:22;49.35;;;6.38;;
77466;SDS011;66564;42.482;25.548;2023-06-14T06:04:48;11.00;;;4.90;;
77466;SDS011;66564;42.482;25.548;2023-06-14T06:07:13;5.53;;;4.35;;
77466;SDS011;66564;42.482;25.548;2023-06-14T06:09:39;38.35;;;5.90;;
77466;SDS011;66564;42.482;25.548;2023-06-14T06:12:06;17.30;;;4.57;;
77466;SDS011;66564;42.482;25.548;2023-06-14T06:14:32;6.10;;;4.72;;
77466;SDS011;66564;42.482;25.548;2023-06-14T06:16:57;7.30;;;4.10;;
77466;SDS011;66564;42.482;25.548;2023-06-14T06:19:23;12.40;;;4.05;;
77466;SDS011;66564;42.482;25.548;2023-06-14T06:21:49;7.47;;;4.45;;
77466;SDS011;66564;42.482;25.548;2023-06-14T06:24:14;6.03;;;4.07;;
77466;SDS011;66564;42.482;25.548;2023-06-14T06:26:40;9.68;;;4.47;;
77466;SDS011;66564;42.482;25.548;2023-06-14T06:33:30;7.25;;;4.28;;
77466;SDS011;66564;42.482;25.548;2023-06-14T06:35:55;5.13;;;4.20;;
77466;SDS011;66564;42.482;25.548;2023-06-14T06:38:21;5.97;;;3.90;;
77466;SDS011;66564;42.482;25.548;2023-06-14T06:40:46;6.40;;;4.50;;
77466;SDS011;66564;42.482;25.548;2023-06-14T06:43:12;6.15;;;4.40;;
77466;SDS011;66564;42.482;25.548;2023-06-14T06:45:42;6.78;;;4.22;;
77466;SDS011;66564;42.482;25.548;2023-06-14T06:48:07;8.38;;;4.20;;
77466;SDS011;66564;42.482;25.548;2023-06-14T06:50:35;5.68;;;4.68;;
77466;SDS011;66564;42.482;25.548;2023-06-14T06:53:01;6.10;;;3.90;;
77466;SDS011;66564;42.482;25.548;2023-06-14T06:55:27;7.35;;;4.20;;
77466;SDS011;66564;42.482;25.548;2023-06-14T06:57:52;6.30;;;4.18;;
77466;SDS011;66564;42.482;25.548;2023-06-14T07:00:18;5.28;;;3.80;;
77466;SDS011;66564;42.482;25.548;2023-06-14T07:02:44;7.05;;;4.78;;
77466;SDS011;66564;42.482;25.548;2023-06-14T07:05:10;9.15;;;4.15;;
77466;SDS011;66564;42.482;25.548;2023-06-14T07:07:36;7.72;;;4.10;;
77466;SDS011;66564;42.482;25.548;2023-06-14T07:10:02;7.40;;;4.22;;
77466;SDS011;66564;42.482;25.548;2023-06-14T07:12:30;5.03;;;4.28;;
77466;SDS011;66564;42.482;25.548;2023-06-14T07:15:01;5.78;;;3.90;;
77466;SDS011;66564;42.482;25.548;2023-06-14T07:17:26;21.15;;;5.43;;
77466;SDS011;66564;42.482;25.548;2023-06-14T07:19:52;31.30;;;5.97;;
77466;SDS011;66564;42.482;25.548;2023-06-14T07:22:19;5.18;;;4.20;;
77466;SDS011;66564;42.482;25.548;2023-06-14T07:24:45;4.75;;;3.97;;
77466;SDS011;66564;42.482;25.548;2023-06-14T07:27:10;6.38;;;4.30;;
77466;SDS011;66564;42.482;25.548;2023-06-14T07:29:38;4.75;;;3.55;;
77466;SDS011;66564;42.482;25.548;2023-06-14T07:32:03;5.75;;;4.10;;
77466;SDS011;66564;42.482;25.548;2023-06-14T07:34:30;7.70;;;4.22;;
77466;SDS011;66564;42.482;25.548;2023-06-14T07:36:56;7.50;;;4.38;;
77466;SDS011;66564;42.482;25.548;2023-06-14T07:39:22;7.35;;;4.30;;
77466;SDS011;66564;42.482;25.548;2023-06-14T07:41:48;6.35;;;4.25;;
77466;SDS011;66564;42.482;25.548;2023-06-14T07:44:13;5.90;;;4.68;;
77466;SDS011;66564;42.482;25.548;2023-06-14T07:46:39;5.78;;;4.57;;
77466;SDS011;66564;42.482;25.548;2023-06-14T07:49:05;4.57;;;4.10;;
77466;SDS011;66564;42.482;25.548;2023-06-14T07:51:31;5.35;;;3.85;;
77466;SDS011;66564;42.482;25.548;2023-06-14T07:53:58;4.85;;;3.83;;
77466;SDS011;66564;42.482;25.548;2023-06-14T07:56:27;5.97;;;4.75;;
77466;SDS011;66564;42.482;25.548;2023-06-14T07:58:53;6.47;;;4.35;;
77466;SDS011;66564;42.482;25.548;2023-06-14T08:01:18;6.25;;;4.38;;
77466;SDS011;66564;42.482;25.548;2023-06-14T08:03:45;6.57;;;4.65;;
77466;SDS011;66564;42.482;25.548;2023-06-14T08:06:10;7.40;;;4.22;;
77466;SDS011;66564;42.482;25.548;2023-06-14T08:08:36;8.02;;;4.72;;
77466;SDS011;66564;42.482;25.548;2023-06-14T08:11:01;6.53;;;4.15;;
77466;SDS011;66564;42.482;25.548;2023-06-14T08:13:27;4.72;;;4.18;;
77466;SDS011;66564;42.482;25.548;2023-06-14T08:15:53;6.55;;;4.20;;
77466;SDS011;66564;42.482;25.548;2023-06-14T08:18:18;6.00;;;4.15;;
77466;SDS011;66564;42.482;25.548;2023-06-14T08:20:44;5.47;;;4.65;;
77466;SDS011;66564;42.482;25.548;2023-06-14T08:23:10;7.78;;;4.70;;
77466;SDS011;66564;42.482;25.548;2023-06-14T08:25:36;5.30;;;4.28;;
77466;SDS011;66564;42.482;25.548;2023-06-14T08:28:02;5.18;;;4.30;;
77466;SDS011;66564;42.482;25.548;2023-06-14T08:30:27;10.68;;;5.50;;
77466;SDS011;66564;42.482;25.548;2023-06-14T08:32:53;8.07;;;4.97;;
77466;SDS011;66564;42.482;25.548;2023-06-14T08:35:20;11.38;;;5.25;;
77466;SDS011;66564;42.482;25.548;2023-06-14T08:37:46;8.35;;;6.10;;
77466;SDS011;66564;42.482;25.548;2023-06-14T08:40:22;6.85;;;5.55;;
77466;SDS011;66564;42.482;25.548;2023-06-14T08:42:52;7.18;;;5.45;;
77466;SDS011;66564;42.482;25.548;2023-06-14T08:45:23;6.53;;;5.32;;
77466;SDS011;66564;42.482;25.548;2023-06-14T08:47:50;11.10;;;6.00;;
77466;SDS011;66564;42.482;25.548;2023-06-14T08:50:20;7.30;;;5.10;;
77466;SDS011;66564;42.482;25.548;2023-06-14T08:52:48;6.88;;;5.45;;
77466;SDS011;66564;42.482;25.548;2023-06-14T08:55:18;9.50;;;5.57;;
77466;SDS011;66564;42.482;25.548;2023-06-14T08:57:45;9.82;;;6.05;;
77466;SDS011;66564;42.482;25.548;2023-06-14T09:00:14;9.30;;;5.90;;
77466;SDS011;66564;42.482;25.548;2023-06-14T09:02:40;8.13;;;5.38;;
77466;SDS011;66564;42.482;25.548;2023-06-14T09:05:08;6.85;;;5.85;;
77466;SDS011;66564;42.482;25.548;2023-06-14T09:07:36;9.38;;;5.60;;
77466;SDS011;66564;42.482;25.548;2023-06-14T09:10:13;7.72;;;5.07;;
77466;SDS011;66564;42.482;25.548;2023-06-14T09:12:40;8.68;;;5.50;;
77466;SDS011;66564;42.482;25.548;2023-06-14T09:15:06;23.17;;;6.75;;
77466;SDS011;66564;42.482;25.548;2023-06-14T09:17:34;8.20;;;5.50;;
77466;SDS011;66564;42.482;25.548;2023-06-14T09:20:03;10.60;;;5.55;;
77466;SDS011;66564;42.482;25.548;2023-06-14T09:22:36;7.75;;;5.63;;
77466;SDS011;66564;42.482;25.548;2023-06-14T09:25:03;10.35;;;5.65;;
77466;SDS011;66564;42.482;25.548;2023-06-14T09:27:30;8.40;;;5.20;;
77466;SDS011;66564;42.482;25.548;2023-06-14T09:29:57;8.43;;;5.93;;
77466;SDS011;66564;42.482;25.548;2023-06-14T09:32:23;7.40;;;5.25;;
77466;SDS011;66564;42.482;25.548;2023-06-14T09:34:50;9.02;;;5.40;;
77466;SDS011;66564;42.482;25.548;2023-06-14T09:37:31;8.20;;;6.07;;
77466;SDS011;66564;42.482;25.548;2023-06-14T09:39:57;8.70;;;5.97;;
77466;SDS011;66564;42.482;25.548;2023-06-14T09:42:23;8.98;;;6.35;;
77466;SDS011;66564;42.482;25.548;2023-06-14T09:44:53;7.63;;;5.90;;
77466;SDS011;66564;42.482;25.548;2023-06-14T09:47:20;8.32;;;5.90;;
77466;SDS011;66564;42.482;25.548;2023-06-14T09:49:47;7.10;;;6.10;;
77466;SDS011;66564;42.482;25.548;2023-06-14T09:52:17;8.05;;;6.07;;
77466;SDS011;66564;42.482;25.548;2023-06-14T09:54:47;8.98;;;6.10;;
77466;SDS011;66564;42.482;25.548;2023-06-14T09:57:20;33.00;;;7.68;;
77466;SDS011;66564;42.482;25.548;2023-06-14T09:59:47;8.20;;;5.88;;
77466;SDS011;66564;42.482;25.548;2023-06-14T10:05:06;9.20;;;5.63;;
77466;SDS011;66564;42.482;25.548;2023-06-14T10:07:40;9.07;;;5.63;;
77466;SDS011;66564;42.482;25.548;2023-06-14T10:10:13;9.73;;;5.47;;
77466;SDS011;66564;42.482;25.548;2023-06-14T10:12:39;8.73;;;5.65;;
77466;SDS011;66564;42.482;25.548;2023-06-14T10:15:05;7.25;;;5.22;;
77466;SDS011;66564;42.482;25.548;2023-06-14T10:17:44;6.65;;;5.05;;
77466;SDS011;66564;42.482;25.548;2023-06-14T10:23:07;6.82;;;5.43;;
77466;SDS011;66564;42.482;25.548;2023-06-14T10:25:38;9.52;;;5.57;;
77466;SDS011;66564;42.482;25.548;2023-06-14T10:28:22;7.00;;;5.28;;
77466;SDS011;66564;42.482;25.548;2023-06-14T10:33:48;9.75;;;5.85;;
77466;SDS011;66564;42.482;25.548;2023-06-14T10:36:30;6.68;;;5.70;;
77466;SDS011;66564;42.482;25.548;2023-06-14T10:39:10;5.85;;;5.25;;
77466;SDS011;66564;42.482;25.548;2023-06-14T10:41:40;10.80;;;5.78;;
77466;SDS011;66564;42.482;25.548;2023-06-14T10:46:48;8.07;;;6.50;;
77466;SDS011;66564;42.482;25.548;2023-06-14T10:49:18;8.18;;;5.60;;
77466;SDS011;66564;42.482;25.548;2023-06-14T10:51:45;6.30;;;5.38;;
77466;SDS011;66564;42.482;25.548;2023-06-14T10:54:20;8.95;;;5.80;;
77466;SDS011;66564;42.482;25.548;2023-06-14T10:56:46;7.05;;;5.03;;
77466;SDS011;66564;42.482;25.548;2023-06-14T10:59:18;8.45;;;5.15;;
77466;SDS011;66564;42.482;25.548;2023-06-14T11:04:27;10.20;;;5.50;;
77466;SDS011;66564;42.482;25.548;2023-06-14T11:10:40;8.73;;;6.30;;
77466;SDS011;66564;42.482;25.548;2023-06-14T11:13:08;11.93;;;5.90;;
77466;SDS011;66564;42.482;25.548;2023-06-14T11:15:34;11.85;;;6.20;;
77466;SDS011;66564;42.482;25.548;2023-06-14T11:18:05;8.82;;;5.63;;
77466;SDS011;66564;42.482;25.548;2023-06-14T11:20:32;7.68;;;5.65;;
77466;SDS011;66564;42.482;25.548;2023-06-14T11:22:59;7.00;;;5.55;;
77466;SDS011;66564;42.482;25.548;2023-06-14T11:25:25;6.57;;;5.53;;
77466;SDS011;66564;42.482;25.548;2023-06-14T11:27:51;9.68;;;5.40;;
77466;SDS011;66564;42.482;25.548;2023-06-14T11:30:18;6.35;;;5.75;;
77466;SDS011;66564;42.482;25.548;2023-06-14T11:32:47;12.93;;;6.68;;
77466;SDS011;66564;42.482;25.548;2023-06-14T11:35:22;8.18;;;6.03;;
77466;SDS011;66564;42.482;25.548;2023-06-14T11:37:48;7.28;;;5.32;;
77466;SDS011;66564;42.482;25.548;2023-06-14T11:42:43;9.15;;;6.93;;
77466;SDS011;66564;42.482;25.548;2023-06-14T11:45:09;10.05;;;5.28;;
77466;SDS011;66564;42.482;25.548;2023-06-14T11:47:36;15.02;;;5.65;;
77466;SDS011;66564;42.482;25.548;2023-06-14T11:50:04;8.65;;;5.57;;
77466;SDS011;66564;42.482;25.548;2023-06-14T11:52:34;9.02;;;5.75;;
77466;SDS011;66564;42.482;25.548;2023-06-14T11:55:01;7.07;;;6.15;;
77466;SDS011;66564;42.482;25.548;2023-06-14T11:57:30;8.93;;;5.18;;
77466;SDS011;66564;42.482;25.548;2023-06-14T12:02:24;8.25;;;5.47;;
77466;SDS011;66564;42.482;25.548;2023-06-14T12:04:52;7.65;;;5.15;;
77466;SDS011;66564;42.482;25.548;2023-06-14T12:07:18;13.68;;;5.85;;
77466;SDS011;66564;42.482;25.548;2023-06-14T12:12:22;8.25;;;5.75;;
77466;SDS011;66564;42.482;25.548;2023-06-14T12:14:50;8.93;;;5.20;;
77466;SDS011;66564;42.482;25.548;2023-06-14T12:17:17;7.90;;;5.13;;
77466;SDS011;66564;42.482;25.548;2023-06-14T12:19:44;5.32;;;4.80;;
77466;SDS011;66564;42.482;25.548;2023-06-14T12:22:11;6.55;;;5.30;;
77466;SDS011;66564;42.482;25.548;2023-06-14T12:24:43;7.18;;;4.60;;
77466;SDS011;66564;42.482;25.548;2023-06-14T12:27:09;7.68;;;5.07;;
77466;SDS011;66564;42.482;25.548;2023-06-14T12:29:37;7.05;;;5.00;;
77466;SDS011;66564;42.482;25.548;2023-06-14T12:32:02;6.53;;;5.22;;
77466;SDS011;66564;42.482;25.548;2023-06-14T12:34:28;6.88;;;5.07;;
77466;SDS011;66564;42.482;25.548;2023-06-14T12:36:54;11.43;;;5.53;;
77466;SDS011;66564;42.482;25.548;2023-06-14T12:39:20;7.00;;;4.97;;
77466;SDS011;66564;42.482;25.548;2023-06-14T12:41:46;6.40;;;5.20;;
77466;SDS011;66564;42.482;25.548;2023-06-14T12:44:12;7.30;;;4.82;;
77466;SDS011;66564;42.482;25.548;2023-06-14T12:46:38;35.60;;;6.70;;
77466;SDS011;66564;42.482;25.548;2023-06-14T12:49:05;49.83;;;8.95;;
77466;SDS011;66564;42.482;25.548;2023-06-14T12:51:31;7.82;;;5.00;;
77466;SDS011;66564;42.482;25.548;2023-06-14T12:53:57;6.03;;;4.72;;
77466;SDS011;66564;42.482;25.548;2023-06-14T12:56:23;7.70;;;5.57;;
77466;SDS011;66564;42.482;25.548;2023-06-14T12:58:48;6.75;;;5.18;;
77466;SDS011;66564;42.482;25.548;2023-06-14T13:01:14;5.75;;;5.15;;
77466;SDS011;66564;42.482;25.548;2023-06-14T13:03:39;6.53;;;5.10;;
77466;SDS011;66564;42.482;25.548;2023-06-14T13:06:05;5.72;;;4.53;;
77466;SDS011;66564;42.482;25.548;2023-06-14T13:08:31;6.35;;;5.13;;
77466;SDS011;66564;42.482;25.548;2023-06-14T13:10:56;6.78;;;5.25;;
77466;SDS011;66564;42.482;25.548;2023-06-14T13:13:26;6.22;;;4.97;;
77466;SDS011;66564;42.482;25.548;2023-06-14T13:15:51;6.15;;;4.75;;
77466;SDS011;66564;42.482;25.548;2023-06-14T13:18:19;5.45;;;4.50;;
77466;SDS011;66564;42.482;25.548;2023-06-14T13:20:48;6.38;;;5.15;;
77466;SDS011;66564;42.482;25.548;2023-06-14T13:23:13;11.90;;;5.25;;
77466;SDS011;66564;42.482;25.548;2023-06-14T13:25:40;7.82;;;4.82;;
77466;SDS011;66564;42.482;25.548;2023-06-14T13:28:05;9.00;;;5.28;;
77466;SDS011;66564;42.482;25.548;2023-06-14T13:30:31;8.30;;;4.72;;
77466;SDS011;66564;42.482;25.548;2023-06-14T13:32:58;7.32;;;4.68;;
77466;SDS011;66564;42.482;25.548;2023-06-14T13:35:23;5.78;;;4.63;;
77466;SDS011;66564;42.482;25.548;2023-06-14T13:37:50;6.88;;;4.50;;
77466;SDS011;66564;42.482;25.548;2023-06-14T13:40:15;6.82;;;4.53;;
77466;SDS011;66564;42.482;25.548;2023-06-14T13:42:41;5.97;;;4.85;;
77466;SDS011;66564;42.482;25.548;2023-06-14T13:45:07;7.20;;;5.03;;
77466;SDS011;66564;42.482;25.548;2023-06-14T13:47:33;12.60;;;5.03;;
77466;SDS011;66564;42.482;25.548;2023-06-14T13:49:59;7.20;;;4.80;;
77466;SDS011;66564;42.482;25.548;2023-06-14T13:52:25;5.50;;;4.28;;
77466;SDS011;66564;42.482;25.548;2023-06-14T13:54:51;10.95;;;4.65;;
77466;SDS011;66564;42.482;25.548;2023-06-14T13:57:17;6.78;;;4.85;;
77466;SDS011;66564;42.482;25.548;2023-06-14T13:59:43;5.78;;;5.18;;
77466;SDS011;66564;42.482;25.548;2023-06-14T14:02:09;7.57;;;5.00;;
77466;SDS011;66564;42.482;25.548;2023-06-14T14:04:36;5.95;;;4.75;;
77466;SDS011;66564;42.482;25.548;2023-06-14T14:07:03;7.43;;;4.95;;
77466;SDS011;66564;42.482;25.548;2023-06-14T14:09:29;6.30;;;5.10;;
77466;SDS011;66564;42.482;25.548;2023-06-14T14:11:55;6.97;;;4.93;;
77466;SDS011;66564;42.482;25.548;2023-06-14T14:14:21;8.95;;;4.95;;
77466;SDS011;66564;42.482;25.548;2023-06-14T14:16:48;5.40;;;4.70;;
77466;SDS011;66564;42.482;25.548;2023-06-14T14:19:16;6.00;;;5.07;;
77466;SDS011;66564;42.482;25.548;2023-06-14T14:21:43;5.93;;;5.18;;
77466;SDS011;66564;42.482;25.548;2023-06-14T14:24:09;6.15;;;5.03;;
77466;SDS011;66564;42.482;25.548;2023-06-14T14:26:35;7.32;;;4.72;;
77466;SDS011;66564;42.482;25.548;2023-06-14T14:29:00;9.23;;;5.13;;
77466;SDS011;66564;42.482;25.548;2023-06-14T14:31:27;6.75;;;5.18;;
77466;SDS011;66564;42.482;25.548;2023-06-14T14:33:53;6.88;;;4.55;;
77466;SDS011;66564;42.482;25.548;2023-06-14T14:36:18;6.65;;;5.05;;
77466;SDS011;66564;42.482;25.548;2023-06-14T14:38:44;6.82;;;4.70;;
77466;SDS011;66564;42.482;25.548;2023-06-14T14:41:10;5.55;;;5.00;;
77466;SDS011;66564;42.482;25.548;2023-06-14T14:43:35;6.72;;;4.95;;
77466;SDS011;66564;42.482;25.548;2023-06-14T14:46:01;8.38;;;4.80;;
77466;SDS011;66564;42.482;25.548;2023-06-14T14:48:26;5.38;;;4.40;;
77466;SDS011;66564;42.482;25.548;2023-06-14T14:50:52;6.75;;;4.45;;
77466;SDS011;66564;42.482;25.548;2023-06-14T14:53:17;7.90;;;5.18;;
77466;SDS011;66564;42.482;25.548;2023-06-14T14:55:43;9.32;;;4.65;;
77466;SDS011;66564;42.482;25.548;2023-06-14T14:58:09;5.15;;;4.60;;
77466;SDS011;66564;42.482;25.548;2023-06-14T15:00:35;5.03;;;4.47;;
77466;SDS011;66564;42.482;25.548;2023-06-14T15:03:00;9.32;;;5.50;;
77466;SDS011;66564;42.482;25.548;2023-06-14T15:05:26;6.20;;;4.57;;